createdAt,value
2023-12-19T00:01:20.319Z,5.70
2023-12-19T00:03:48.625Z,8.30
2023-12-19T00:06:16.521Z,5.87
2023-12-19T00:08:45.843Z,7.20
2023-12-19T00:11:13.700Z,7.17
2023-12-19T00:13:41.666Z,6.73
2023-12-19T00:16:09.596Z,6.90
2023-12-19T00:18:37.592Z,5.93
2023-12-19T00:21:06.250Z,7.47
2023-12-19T00:23:34.124Z,5.33
2023-12-19T00:26:03.403Z,5.33
2023-12-19T00:28:32.851Z,6.13
2023-12-19T00:31:00.778Z,5.87
2023-12-19T00:33:28.853Z,6.67
2023-12-19T00:35:57.221Z,6.30
2023-12-19T00:38:25.065Z,5.27
2023-12-19T00:40:52.966Z,3.93
2023-12-19T00:43:22.183Z,4.47
2023-12-19T00:45:50.047Z,4.57
2023-12-19T00:48:18.879Z,4.37
2023-12-19T00:50:46.903Z,4.17
2023-12-19T00:53:14.730Z,6.17
2023-12-19T00:55:42.610Z,4.87
2023-12-19T00:58:10.504Z,3.30
2023-12-19T01:00:39.832Z,6.43
2023-12-19T01:03:07.855Z,5.60
2023-12-19T01:05:35.711Z,4.47
2023-12-19T01:08:03.588Z,6.33
2023-12-19T01:10:31.439Z,6.23
2023-12-19T01:12:59.339Z,5.87
2023-12-19T01:15:27.553Z,5.03
2023-12-19T01:17:56.862Z,7.00
2023-12-19T01:20:24.808Z,6.13
2023-12-19T01:22:52.660Z,5.37
2023-12-19T01:25:20.558Z,4.73
2023-12-19T01:27:48.423Z,5.33
2023-12-19T01:30:16.501Z,4.07
2023-12-19T01:32:44.632Z,6.27
2023-12-19T01:35:14.077Z,5.00
2023-12-19T01:37:41.932Z,6.97
2023-12-19T01:40:10.742Z,5.20
2023-12-19T01:42:38.661Z,6.30
2023-12-19T01:45:11.608Z,5.23
2023-12-19T01:47:42.467Z,6.27
2023-12-19T01:50:10.590Z,4.40
2023-12-19T01:52:43.773Z,4.63
2023-12-19T01:55:12.809Z,4.40
2023-12-19T01:57:40.855Z,5.17
2023-12-19T02:00:10.314Z,4.87
2023-12-19T02:02:38.318Z,3.80
2023-12-19T02:05:07.282Z,7.33
2023-12-19T02:07:35.438Z,5.13
2023-12-19T02:10:04.987Z,4.90
2023-12-19T02:12:33.375Z,6.33
2023-12-19T02:15:01.359Z,5.03
2023-12-19T02:17:29.361Z,5.37
2023-12-19T02:19:57.268Z,3.70
2023-12-19T02:22:25.119Z,5.30
2023-12-19T02:24:54.493Z,3.77
2023-12-19T02:27:25.717Z,3.70
2023-12-19T02:29:53.782Z,3.40
2023-12-19T02:32:21.708Z,3.13
2023-12-19T02:34:50.457Z,2.70
2023-12-19T02:37:18.407Z,3.63
2023-12-19T02:39:46.304Z,3.00
2023-12-19T02:42:15.590Z,3.40
2023-12-19T02:44:43.428Z,3.60
2023-12-19T02:47:11.298Z,3.20
2023-12-19T02:49:39.279Z,9.33
2023-12-19T02:52:07.446Z,5.40
2023-12-19T02:54:35.350Z,3.40
2023-12-19T02:57:03.238Z,3.23
2023-12-19T02:59:32.443Z,3.33
2023-12-19T03:02:00.288Z,4.23
2023-12-19T03:04:28.392Z,4.50
2023-12-19T03:06:56.344Z,3.63
2023-12-19T03:09:24.291Z,4.10
2023-12-19T03:12:04.409Z,4.53
2023-12-19T03:14:34.855Z,3.93
2023-12-19T03:17:03.467Z,2.43
2023-12-19T03:19:32.122Z,2.67
2023-12-19T03:22:00.199Z,5.67
2023-12-19T03:24:30.181Z,2.53
2023-12-19T03:26:58.253Z,4.83
2023-12-19T03:29:26.121Z,2.80
2023-12-19T03:31:55.432Z,2.97
2023-12-19T03:34:23.365Z,3.30
2023-12-19T03:36:51.447Z,2.47
2023-12-19T03:39:19.581Z,2.63
2023-12-19T03:42:10.146Z,2.87
2023-12-19T03:44:35.507Z,3.80
2023-12-19T03:47:05.176Z,3.33
2023-12-19T03:49:33.169Z,1.57
2023-12-19T03:52:01.216Z,2.77
2023-12-19T03:54:29.259Z,2.43
2023-12-19T03:56:57.253Z,2.77
2023-12-19T03:59:25.094Z,1.40
2023-12-19T04:01:53.399Z,2.37
2023-12-19T04:04:22.801Z,2.80
2023-12-19T04:06:50.741Z,2.77
2023-12-19T04:09:18.735Z,3.67
2023-12-19T04:11:49.529Z,2.90
2023-12-19T04:14:17.687Z,3.57
2023-12-19T04:16:45.690Z,2.30
2023-12-19T04:19:14.069Z,2.43
2023-12-19T04:21:44.042Z,2.57
2023-12-19T04:24:12.242Z,2.47
2023-12-19T04:26:40.153Z,2.30
2023-12-19T04:29:08.011Z,2.20
2023-12-19T04:31:36.116Z,2.47
2023-12-19T04:34:04.346Z,3.07
2023-12-19T04:36:33.243Z,2.10
2023-12-19T04:39:02.658Z,3.97
2023-12-19T04:41:30.558Z,4.07
2023-12-19T04:43:58.843Z,3.27
2023-12-19T04:46:26.817Z,2.80
2023-12-19T04:48:56.860Z,4.57
2023-12-19T04:51:25.087Z,5.07
2023-12-19T04:53:53.293Z,3.43
2023-12-19T04:56:22.566Z,2.20
2023-12-19T04:58:50.435Z,3.13
2023-12-19T05:01:18.540Z,1.80
2023-12-19T05:03:46.523Z,2.87
2023-12-19T05:06:18.402Z,6.60
2023-12-19T05:08:47.209Z,7.47
2023-12-19T05:11:15.266Z,16.43
2023-12-19T05:13:44.660Z,5.70
2023-12-19T05:16:14.996Z,2.23
2023-12-19T05:18:43.401Z,2.47
2023-12-19T05:21:12.252Z,3.37
2023-12-19T05:23:41.507Z,2.90
2023-12-19T05:26:10.521Z,2.50
2023-12-19T05:28:40.725Z,2.37
2023-12-19T05:31:11.569Z,2.17
2023-12-19T05:33:39.903Z,4.10
2023-12-19T05:36:08.157Z,3.33
2023-12-19T05:38:36.021Z,1.83
2023-12-19T05:41:04.710Z,2.53
2023-12-19T05:43:32.722Z,4.33
2023-12-19T05:46:01.611Z,7.47
2023-12-19T05:48:30.961Z,8.97
2023-12-19T05:51:00.846Z,6.70
2023-12-19T05:53:29.230Z,4.03
2023-12-19T05:55:57.257Z,4.43
2023-12-19T05:58:25.282Z,5.10
2023-12-19T06:00:56.996Z,2.83
2023-12-19T06:03:25.633Z,1.53
2023-12-19T06:05:55.078Z,2.57
2023-12-19T06:08:24.094Z,4.60
2023-12-19T06:10:52.352Z,3.93
2023-12-19T06:13:20.743Z,3.40
2023-12-19T06:15:48.679Z,3.93
2023-12-19T06:18:17.782Z,2.37
2023-12-19T06:20:45.891Z,2.70
2023-12-19T06:23:15.431Z,3.20
2023-12-19T06:25:43.357Z,5.70
2023-12-19T06:28:11.352Z,3.97
2023-12-19T06:30:39.999Z,3.10
2023-12-19T06:33:08.376Z,5.33
2023-12-19T06:35:40.942Z,3.50
2023-12-19T06:38:08.959Z,5.27
2023-12-19T06:40:38.861Z,3.30
2023-12-19T06:43:11.577Z,2.83
2023-12-19T06:45:40.024Z,1.67
2023-12-19T06:48:08.562Z,1.73
2023-12-19T06:50:36.533Z,2.90
2023-12-19T06:53:04.533Z,2.47
2023-12-19T06:55:32.531Z,2.57
2023-12-19T06:58:02.024Z,3.80
2023-12-19T07:00:30.935Z,4.43
2023-12-19T07:02:58.994Z,6.13
2023-12-19T07:05:27.073Z,4.67
2023-12-19T07:07:54.952Z,2.77
2023-12-19T07:10:22.825Z,1.77
2023-12-19T07:12:50.747Z,3.57
2023-12-19T07:15:20.085Z,1.57
2023-12-19T07:17:47.990Z,1.97
2023-12-19T07:20:16.122Z,5.10
2023-12-19T07:22:44.243Z,7.00
2023-12-19T07:25:12.528Z,5.40
2023-12-19T07:27:42.689Z,3.60
2023-12-19T07:30:14.053Z,4.13
2023-12-19T07:32:43.753Z,3.07
2023-12-19T07:35:14.714Z,2.40
2023-12-19T07:37:43.289Z,1.70
2023-12-19T07:40:12.748Z,1.70
2023-12-19T07:42:42.487Z,1.30
2023-12-19T07:45:11.039Z,3.07
2023-12-19T07:47:39.098Z,2.43
2023-12-19T07:50:11.752Z,1.93
2023-12-19T07:52:40.073Z,2.00
2023-12-19T07:55:11.336Z,2.90
2023-12-19T07:57:39.843Z,2.13
2023-12-19T08:00:09.365Z,2.40
2023-12-19T08:02:40.590Z,2.00
2023-12-19T08:05:13.391Z,6.47
2023-12-19T08:07:41.530Z,2.80
2023-12-19T08:10:10.114Z,2.33
2023-12-19T08:12:39.448Z,3.57
2023-12-19T08:15:09.254Z,5.87
2023-12-19T08:17:38.635Z,2.83
2023-12-19T08:20:11.700Z,3.27
2023-12-19T08:22:39.712Z,2.53
2023-12-19T08:25:08.485Z,3.73
2023-12-19T08:27:36.602Z,2.60
2023-12-19T08:30:05.296Z,2.93
2023-12-19T08:32:33.192Z,1.87
2023-12-19T08:35:01.306Z,3.43
2023-12-19T08:37:31.004Z,9.17
2023-12-19T08:39:58.971Z,10.00
2023-12-19T08:42:27.529Z,10.57
2023-12-19T08:44:56.960Z,13.73
2023-12-19T08:47:25.446Z,13.23
2023-12-19T08:49:54.053Z,14.97
2023-12-19T08:52:25.245Z,12.60
2023-12-19T08:54:54.628Z,10.83
2023-12-19T08:57:22.589Z,13.33
2023-12-19T08:59:50.593Z,13.50
2023-12-19T09:02:18.462Z,14.17
2023-12-19T09:04:46.465Z,19.33
2023-12-19T09:07:14.432Z,16.67
2023-12-19T09:09:42.366Z,20.20
2023-12-19T09:12:11.615Z,20.40
2023-12-19T09:14:39.525Z,21.97
2023-12-19T09:17:07.390Z,30.10
2023-12-19T09:19:36.186Z,15.33
2023-12-19T09:22:04.865Z,9.97
2023-12-19T09:24:32.900Z,9.57
2023-12-19T09:27:00.777Z,10.80
2023-12-19T09:29:30.039Z,10.73
2023-12-19T09:31:58.867Z,9.93
2023-12-19T09:34:27.478Z,14.13
2023-12-19T09:36:57.420Z,23.60
2023-12-19T09:39:26.129Z,17.83
2023-12-19T09:41:54.910Z,21.17
2023-12-19T09:44:26.040Z,21.63
2023-12-19T09:46:56.931Z,20.67
2023-12-19T09:49:26.953Z,17.03
2023-12-19T09:51:57.120Z,16.43
2023-12-19T09:54:25.794Z,24.90
2023-12-19T09:56:54.470Z,14.97
2023-12-19T09:59:22.636Z,17.03
2023-12-19T10:01:50.729Z,10.53
2023-12-19T10:04:20.473Z,10.37
2023-12-19T10:06:56.763Z,12.70
2023-12-19T10:09:24.853Z,9.50
2023-12-19T10:12:08.852Z,6.50
2023-12-19T10:14:36.769Z,8.43
2023-12-19T10:17:07.105Z,10.73
2023-12-19T10:19:36.536Z,22.63
2023-12-19T10:22:08.504Z,21.47
2023-12-19T10:24:37.087Z,20.50
2023-12-19T10:27:07.163Z,15.53
2023-12-19T10:29:38.719Z,10.53
2023-12-19T10:32:18.016Z,10.90
2023-12-19T10:34:48.465Z,9.83
2023-12-19T10:37:19.372Z,7.30
2023-12-19T10:39:48.532Z,8.03
2023-12-19T10:42:20.232Z,8.57
2023-12-19T10:44:50.503Z,6.63
2023-12-19T10:47:18.749Z,7.03
2023-12-19T10:49:52.018Z,6.53
2023-12-19T10:52:23.653Z,6.57
2023-12-19T10:54:58.707Z,6.83
2023-12-19T10:57:30.243Z,6.63
2023-12-19T11:00:10.835Z,5.73
2023-12-19T11:02:56.855Z,4.67
2023-12-19T11:05:35.707Z,3.93
2023-12-19T11:08:06.118Z,6.20
2023-12-19T11:10:39.016Z,4.10
2023-12-19T11:13:07.110Z,4.87
2023-12-19T11:15:39.359Z,4.30
2023-12-19T11:18:14.789Z,4.60
2023-12-19T11:20:48.414Z,3.80
2023-12-19T11:23:32.421Z,6.17
2023-12-19T11:26:06.773Z,5.50
2023-12-19T11:28:38.080Z,9.20
2023-12-19T11:31:27.714Z,6.30
2023-12-19T11:33:56.054Z,7.13
2023-12-19T11:36:25.389Z,5.73
2023-12-19T11:39:13.468Z,5.97
2023-12-19T11:41:41.330Z,10.27
2023-12-19T11:44:09.181Z,9.97
2023-12-19T11:46:37.075Z,10.33
2023-12-19T11:49:04.996Z,10.93
2023-12-19T11:51:52.670Z,10.82
2023-12-19T11:54:20.912Z,7.90
2023-12-19T11:57:02.727Z,10.83
2023-12-19T11:59:50.957Z,10.83
2023-12-19T12:02:42.938Z,12.83
2023-12-19T12:05:14.031Z,14.10
2023-12-19T12:07:48.941Z,12.80
2023-12-19T12:10:19.538Z,13.63
2023-12-19T12:12:47.661Z,11.90
2023-12-19T12:15:18.916Z,12.27
2023-12-19T12:17:47.242Z,13.23
2023-12-19T12:20:16.724Z,15.23
2023-12-19T12:22:46.219Z,12.03
2023-12-19T12:25:14.809Z,14.43
2023-12-19T12:27:43.333Z,16.17
2023-12-19T12:30:12.695Z,13.30
2023-12-19T12:32:41.723Z,13.67
2023-12-19T12:35:28.020Z,11.60
2023-12-19T12:38:01.610Z,9.07
2023-12-19T12:40:29.896Z,8.53
2023-12-19T12:43:35.543Z,11.73
2023-12-19T12:46:12.575Z,7.90
2023-12-19T12:48:42.911Z,7.87
2023-12-19T12:51:11.104Z,7.37
2023-12-19T12:53:40.738Z,9.60
2023-12-19T12:56:18.184Z,6.23
2023-12-19T12:58:47.618Z,6.43
2023-12-19T13:01:16.108Z,5.40
2023-12-19T13:03:44.069Z,5.77
2023-12-19T13:06:12.167Z,5.47
2023-12-19T13:08:41.680Z,5.13
2023-12-19T13:11:10.043Z,6.23
2023-12-19T13:13:38.208Z,4.10
2023-12-19T13:16:08.115Z,5.00
2023-12-19T13:18:37.107Z,12.40
2023-12-19T13:21:06.213Z,7.57
2023-12-19T13:23:35.070Z,4.78
2023-12-19T13:26:04.373Z,4.25
2023-12-19T13:28:32.537Z,4.13
2023-12-19T13:31:00.536Z,3.20
2023-12-19T13:33:29.970Z,6.67
2023-12-19T13:35:57.982Z,3.45
2023-12-19T13:38:25.927Z,3.95
2023-12-19T13:40:53.942Z,4.40
2023-12-19T13:43:23.379Z,2.60
2023-12-19T13:45:51.459Z,3.63
2023-12-19T13:48:19.919Z,3.78
2023-12-19T13:50:47.912Z,9.65
2023-12-19T13:53:15.816Z,7.13
2023-12-19T13:55:43.904Z,8.57
2023-12-19T13:58:11.826Z,7.75
2023-12-19T14:00:41.179Z,6.80
2023-12-19T14:03:11.226Z,6.67
2023-12-19T14:05:39.627Z,8.35
2023-12-19T14:08:08.169Z,6.57
2023-12-19T14:10:36.127Z,10.30
2023-12-19T14:13:05.409Z,6.30
2023-12-19T14:15:33.767Z,7.25
2023-12-19T14:18:04.722Z,6.32
2023-12-19T14:20:32.685Z,7.15
2023-12-19T14:23:01.568Z,12.07
2023-12-19T14:25:29.473Z,8.65
2023-12-19T14:27:57.385Z,7.63
2023-12-19T14:30:25.369Z,6.28
2023-12-19T14:32:55.058Z,10.02
2023-12-19T14:35:24.591Z,7.47
2023-12-19T14:37:52.454Z,8.70
2023-12-19T14:40:20.442Z,5.80
2023-12-19T14:42:48.361Z,15.45
2023-12-19T14:45:16.307Z,5.63
2023-12-19T14:47:44.658Z,8.52
2023-12-19T14:50:13.286Z,15.50
2023-12-19T14:52:42.693Z,6.75
2023-12-19T14:55:10.900Z,8.77
2023-12-19T14:57:39.797Z,9.25
2023-12-19T15:00:11.864Z,9.43
2023-12-19T15:02:39.963Z,11.73
2023-12-19T15:05:08.480Z,11.00
2023-12-19T15:07:38.003Z,9.27
2023-12-19T15:10:10.810Z,10.60
2023-12-19T15:12:39.164Z,8.75
2023-12-19T15:15:08.192Z,10.30
2023-12-19T15:17:36.450Z,8.52
2023-12-19T15:20:05.737Z,11.93
2023-12-19T15:22:33.705Z,12.73
2023-12-19T15:25:01.939Z,10.63
2023-12-19T15:27:31.321Z,13.27
2023-12-19T15:30:00.342Z,9.85
2023-12-19T15:32:28.304Z,6.97
2023-12-19T15:34:56.272Z,9.50
2023-12-19T15:37:24.806Z,9.57
2023-12-19T15:39:52.786Z,11.18
2023-12-19T15:42:20.655Z,10.93
2023-12-19T15:44:50.635Z,9.15
2023-12-19T15:47:19.271Z,9.10
2023-12-19T15:49:47.314Z,10.30
2023-12-19T15:52:15.444Z,11.55
2023-12-19T15:54:43.658Z,12.10
2023-12-19T15:57:11.623Z,11.33
2023-12-19T15:59:39.493Z,10.20
2023-12-19T16:02:11.624Z,9.30
2023-12-19T16:04:43.684Z,10.75
2023-12-19T16:07:13.594Z,9.25
2023-12-19T16:09:41.688Z,11.52
2023-12-19T16:12:10.270Z,7.35
2023-12-19T16:14:38.167Z,7.28
2023-12-19T16:17:06.115Z,5.30
2023-12-19T16:19:37.159Z,8.23
2023-12-19T16:22:06.013Z,8.20
2023-12-19T16:24:33.909Z,9.38
2023-12-19T16:27:01.790Z,7.53
2023-12-19T16:29:30.391Z,10.82
2023-12-19T16:31:58.410Z,9.17
2023-12-19T16:34:26.531Z,10.30
2023-12-19T16:36:55.972Z,8.43
2023-12-19T16:39:23.960Z,9.52
2023-12-19T16:41:51.861Z,11.07
2023-12-19T16:44:19.750Z,11.07
2023-12-19T16:46:47.756Z,12.20
2023-12-19T16:49:17.020Z,9.73
2023-12-19T16:51:45.451Z,8.67
2023-12-19T16:54:14.955Z,8.88
2023-12-19T16:56:42.837Z,10.10
2023-12-19T16:59:10.789Z,11.53
2023-12-19T17:01:38.766Z,10.77
2023-12-19T17:04:08.011Z,13.67
2023-12-19T17:06:36.221Z,12.33
2023-12-19T17:09:04.141Z,11.73
2023-12-19T17:11:33.421Z,10.30
2023-12-19T17:14:01.269Z,11.43
2023-12-19T17:16:29.177Z,13.37
2023-12-19T17:18:57.516Z,13.98
2023-12-19T17:21:25.415Z,13.97
2023-12-19T17:23:54.300Z,15.10
2023-12-19T17:26:25.174Z,11.40
2023-12-19T17:28:54.872Z,13.70
2023-12-19T17:31:23.035Z,10.85
2023-12-19T17:33:51.069Z,10.07
2023-12-19T17:36:23.039Z,11.67
2023-12-19T17:38:51.121Z,11.97
2023-12-19T17:41:20.365Z,10.17
2023-12-19T17:43:48.396Z,14.17
2023-12-19T17:46:17.687Z,14.97
2023-12-19T17:48:46.514Z,13.73
2023-12-19T17:51:14.624Z,14.97
2023-12-19T17:53:42.738Z,14.80
2023-12-19T17:56:10.581Z,13.20
2023-12-19T17:58:38.714Z,13.93
2023-12-19T18:01:06.649Z,13.52
2023-12-19T18:03:36.183Z,14.73
2023-12-19T18:08:34.022Z,14.33
2023-12-19T18:11:01.976Z,14.83
2023-12-19T18:13:29.842Z,15.30
2023-12-19T18:15:57.798Z,13.80
2023-12-19T18:18:26.198Z,17.33
2023-12-19T18:20:58.151Z,17.60
2023-12-19T18:23:26.277Z,16.27
2023-12-19T18:25:54.559Z,19.20
2023-12-19T18:28:22.430Z,15.50
2023-12-19T18:30:50.361Z,15.57
2023-12-19T18:33:18.399Z,15.13
2023-12-19T18:35:46.292Z,18.10
2023-12-19T18:38:15.545Z,21.73
2023-12-19T18:40:43.584Z,22.43
2023-12-19T18:43:11.594Z,20.77
2023-12-19T18:45:39.484Z,18.63
2023-12-19T18:48:08.463Z,18.00
2023-12-19T18:50:36.383Z,20.53
2023-12-19T18:53:04.369Z,18.20
2023-12-19T18:55:33.879Z,20.60
2023-12-19T18:58:04.038Z,33.00
2023-12-19T19:00:32.135Z,26.77
2023-12-19T19:03:00.090Z,24.13
2023-12-19T19:05:28.016Z,27.00
2023-12-19T19:07:56.164Z,34.27
2023-12-19T19:10:24.024Z,28.10
2023-12-19T19:12:54.284Z,19.47
2023-12-19T19:15:22.491Z,22.83
2023-12-19T19:17:50.406Z,18.70
2023-12-19T19:20:35.419Z,21.60
2023-12-19T19:23:04.396Z,19.43
2023-12-19T19:25:34.969Z,18.00
2023-12-19T19:28:04.370Z,20.30
2023-12-19T19:30:32.491Z,21.77
2023-12-19T19:33:00.689Z,19.57
2023-12-19T19:35:28.665Z,22.37
2023-12-19T19:37:56.545Z,22.03
2023-12-19T19:40:34.811Z,23.90
2023-12-19T19:43:07.966Z,23.33
2023-12-19T19:45:35.893Z,23.83
2023-12-19T19:48:03.914Z,23.63
2023-12-19T19:50:31.924Z,25.03
2023-12-19T19:52:59.945Z,22.17
2023-12-19T19:55:29.978Z,23.60
2023-12-19T19:57:59.703Z,23.70
2023-12-19T20:00:29.248Z,26.80
2023-12-19T20:02:57.857Z,29.27
2023-12-19T20:05:25.898Z,26.80
2023-12-19T20:07:56.466Z,25.53
2023-12-19T20:10:24.812Z,23.93
2023-12-19T20:12:53.075Z,28.30
2023-12-19T20:15:21.021Z,23.70
2023-12-19T20:17:50.266Z,24.90
2023-12-19T20:20:18.330Z,24.40
2023-12-19T20:22:47.256Z,25.33
2023-12-19T20:25:16.918Z,27.63
2023-12-19T20:27:45.415Z,26.27
2023-12-19T20:30:15.251Z,32.10
2023-12-19T20:32:44.108Z,30.30
2023-12-19T20:35:14.545Z,29.73
2023-12-19T20:37:42.744Z,27.90
2023-12-19T20:40:12.051Z,30.07
2023-12-19T20:42:40.409Z,25.33
2023-12-19T20:45:09.487Z,23.80
2023-12-19T20:47:37.443Z,24.53
2023-12-19T20:50:06.227Z,23.07
2023-12-19T20:52:45.895Z,27.30
2023-12-19T20:55:19.642Z,22.03
2023-12-19T20:57:47.694Z,19.33
2023-12-19T21:00:16.295Z,18.20
2023-12-19T21:02:44.705Z,19.43
2023-12-19T21:05:12.990Z,17.27
2023-12-19T21:07:42.661Z,19.03
2023-12-19T21:10:11.560Z,18.80
2023-12-19T21:12:40.916Z,18.17
2023-12-19T21:15:10.018Z,16.67
2023-12-19T21:17:37.970Z,19.10
2023-12-19T21:20:07.292Z,17.97
2023-12-19T21:22:35.218Z,15.07
2023-12-19T21:25:05.635Z,17.30
2023-12-19T21:27:33.631Z,19.17
2023-12-19T21:30:01.582Z,17.97
2023-12-19T21:32:30.580Z,19.17
2023-12-19T21:35:01.933Z,18.13
2023-12-19T21:37:29.877Z,16.20
2023-12-19T21:39:57.885Z,16.63
2023-12-19T21:42:27.850Z,15.67
2023-12-19T21:44:55.738Z,17.63
2023-12-19T21:47:23.613Z,17.93
2023-12-19T21:49:51.604Z,16.37
2023-12-19T21:52:20.380Z,17.77
2023-12-19T21:54:48.394Z,17.37
2023-12-19T21:57:16.338Z,17.30
2023-12-19T21:59:47.614Z,19.00
2023-12-19T22:02:15.509Z,19.13
2023-12-19T22:04:43.790Z,15.97
2023-12-19T22:07:12.002Z,15.83
2023-12-19T22:09:45.670Z,19.13
2023-12-19T22:12:21.649Z,14.57
2023-12-19T22:14:51.025Z,18.67
2023-12-19T22:17:18.999Z,17.23
2023-12-19T22:19:47.017Z,17.30
2023-12-19T22:22:15.191Z,15.57
2023-12-19T22:24:43.199Z,14.03
2023-12-19T22:27:13.836Z,14.87
2023-12-19T22:29:45.923Z,15.10
2023-12-19T22:32:16.107Z,16.60
2023-12-19T22:34:44.220Z,14.53
2023-12-19T22:37:12.405Z,16.20
2023-12-19T22:39:40.356Z,15.30
2023-12-19T22:42:08.804Z,16.33
2023-12-19T22:44:36.714Z,17.13
2023-12-19T22:47:04.876Z,16.83
2023-12-19T22:49:34.228Z,13.83
2023-12-19T22:52:02.400Z,13.03
2023-12-19T22:54:30.423Z,14.80
2023-12-19T22:56:58.279Z,12.23
2023-12-19T22:59:27.278Z,13.43
2023-12-19T23:01:55.769Z,10.97
2023-12-19T23:04:24.317Z,10.73
2023-12-19T23:06:53.762Z,12.33
2023-12-19T23:09:21.697Z,13.30
2023-12-19T23:11:49.687Z,12.37
2023-12-19T23:14:19.321Z,12.60
2023-12-19T23:16:47.580Z,11.07
2023-12-19T23:19:15.788Z,12.60
2023-12-19T23:21:43.037Z,10.87
2023-12-19T23:24:12.326Z,10.30
2023-12-19T23:26:40.185Z,12.03
2023-12-19T23:29:09.076Z,10.13
2023-12-19T23:31:41.790Z,9.90
2023-12-19T23:34:11.266Z,10.90
2023-12-19T23:36:39.556Z,8.90
2023-12-19T23:39:07.787Z,10.03
2023-12-19T23:41:37.381Z,9.57
2023-12-19T23:44:05.636Z,10.50
2023-12-19T23:46:34.003Z,9.77
2023-12-19T23:49:01.935Z,10.30
2023-12-19T23:51:29.945Z,12.13
2023-12-19T23:53:57.800Z,10.43
2023-12-19T23:56:25.688Z,13.87
2023-12-19T23:58:54.965Z,16.47
